FAOR/JNB METAR and TAF weather

Enter ICAO airport designator
Station Type Date Time Source
FAOR METAR 2021/08/05 05:00 UTC NOAA

FAOR 050500Z 01003KT 320V030 CAVOK 08/01 Q1029 NOSIG


Station Type Date Time Source
FAOR Decoded METAR 2021/08/05 05:00 UTC NOAA

Station name not available
Aug 05, 2021 - 01:00 AM EDT / 2021.08.05 0500 UTC
Wind: from the N (010 degrees) at 3 MPH (3 KT) (direction variable):0
Visibility: greater than 7 mile(s):0
Temperature: 46 F (8 C)
Dew Point: 33 F (1 C)
Relative Humidity: 61%
Pressure (altimeter): 30.39 in. Hg (1029 hPa)
ob: FAOR 050500Z 01003KT 320V030 CAVOK 08/01 Q1029 NOSIG
cycle: 5

Station Type Date Time Source
FAOR TAF 2021/08/05 06:00 UTC NOAA

TAF FAOR 050400Z 0506/0612 VRB03KT CAVOK TX21/0513Z TN08/0605Z
BECMG 0608/0610 22009KT

Example: see airport list